sensor_id;sensor_type;location;lat;lon;timestamp;P1;durP1;ratioP1;P2;durP2;ratioP2
39750;SDS011;37579;51.074;17.004;2023-02-28T00:01:06;2.80;;;1.50;;
39750;SDS011;37579;51.074;17.004;2023-02-28T00:03:32;3.10;;;1.60;;
39750;SDS011;37579;51.074;17.004;2023-02-28T00:06:01;2.17;;;1.40;;
39750;SDS011;37579;51.074;17.004;2023-02-28T00:08:28;3.05;;;1.67;;
39750;SDS011;37579;51.074;17.004;2023-02-28T00:10:54;2.50;;;1.70;;
39750;SDS011;37579;51.074;17.004;2023-02-28T00:13:20;2.92;;;1.65;;
39750;SDS011;37579;51.074;17.004;2023-02-28T00:15:45;2.38;;;1.60;;
39750;SDS011;37579;51.074;17.004;2023-02-28T00:18:11;2.50;;;1.45;;
39750;SDS011;37579;51.074;17.004;2023-02-28T00:20:38;3.83;;;1.80;;
39750;SDS011;37579;51.074;17.004;2023-02-28T00:23:04;2.47;;;1.60;;
39750;SDS011;37579;51.074;17.004;2023-02-28T00:25:30;2.28;;;1.52;;
39750;SDS011;37579;51.074;17.004;2023-02-28T00:27:56;2.42;;;1.30;;
39750;SDS011;37579;51.074;17.004;2023-02-28T00:30:22;2.10;;;1.48;;
39750;SDS011;37579;51.074;17.004;2023-02-28T00:32:49;2.65;;;1.70;;
39750;SDS011;37579;51.074;17.004;2023-02-28T00:35:15;1.83;;;1.40;;
39750;SDS011;37579;51.074;17.004;2023-02-28T00:37:42;2.95;;;1.50;;
39750;SDS011;37579;51.074;17.004;2023-02-28T00:40:08;2.40;;;1.48;;
39750;SDS011;37579;51.074;17.004;2023-02-28T00:42:35;2.20;;;1.40;;
39750;SDS011;37579;51.074;17.004;2023-02-28T00:45:01;2.55;;;1.42;;
39750;SDS011;37579;51.074;17.004;2023-02-28T00:47:29;2.40;;;1.40;;
39750;SDS011;37579;51.074;17.004;2023-02-28T00:49:55;3.83;;;1.63;;
39750;SDS011;37579;51.074;17.004;2023-02-28T00:52:21;2.90;;;1.60;;
39750;SDS011;37579;51.074;17.004;2023-02-28T00:54:47;2.92;;;1.73;;
39750;SDS011;37579;51.074;17.004;2023-02-28T00:57:13;2.15;;;1.60;;
39750;SDS011;37579;51.074;17.004;2023-02-28T00:59:39;2.22;;;1.40;;
39750;SDS011;37579;51.074;17.004;2023-02-28T01:02:05;2.38;;;1.40;;
39750;SDS011;37579;51.074;17.004;2023-02-28T01:04:31;3.58;;;1.67;;
39750;SDS011;37579;51.074;17.004;2023-02-28T01:07:00;2.45;;;1.63;;
39750;SDS011;37579;51.074;17.004;2023-02-28T01:09:27;2.47;;;1.35;;
39750;SDS011;37579;51.074;17.004;2023-02-28T01:11:53;2.40;;;1.55;;
39750;SDS011;37579;51.074;17.004;2023-02-28T01:14:19;2.40;;;1.50;;
39750;SDS011;37579;51.074;17.004;2023-02-28T01:16:45;2.63;;;1.48;;
39750;SDS011;37579;51.074;17.004;2023-02-28T01:19:11;2.22;;;1.40;;
39750;SDS011;37579;51.074;17.004;2023-02-28T01:21:37;1.98;;;1.30;;
39750;SDS011;37579;51.074;17.004;2023-02-28T01:24:04;2.22;;;1.27;;
39750;SDS011;37579;51.074;17.004;2023-02-28T01:26:31;1.75;;;1.30;;
39750;SDS011;37579;51.074;17.004;2023-02-28T01:28:57;2.25;;;1.45;;
39750;SDS011;37579;51.074;17.004;2023-02-28T01:31:24;1.83;;;1.20;;
39750;SDS011;37579;51.074;17.004;2023-02-28T01:33:50;2.20;;;1.60;;
39750;SDS011;37579;51.074;17.004;2023-02-28T01:36:17;2.33;;;1.63;;
39750;SDS011;37579;51.074;17.004;2023-02-28T01:38:46;2.35;;;1.42;;
39750;SDS011;37579;51.074;17.004;2023-02-28T01:41:23;2.70;;;1.63;;
39750;SDS011;37579;51.074;17.004;2023-02-28T01:43:53;2.15;;;1.42;;
39750;SDS011;37579;51.074;17.004;2023-02-28T01:46:21;2.25;;;1.40;;
39750;SDS011;37579;51.074;17.004;2023-02-28T01:48:56;2.00;;;1.50;;
39750;SDS011;37579;51.074;17.004;2023-02-28T01:54:11;2.22;;;1.48;;
39750;SDS011;37579;51.074;17.004;2023-02-28T01:56:42;2.03;;;1.40;;
39750;SDS011;37579;51.074;17.004;2023-02-28T01:59:14;2.13;;;1.50;;
39750;SDS011;37579;51.074;17.004;2023-02-28T02:01:47;1.70;;;1.23;;
39750;SDS011;37579;51.074;17.004;2023-02-28T02:04:13;2.08;;;1.30;;
39750;SDS011;37579;51.074;17.004;2023-02-28T02:06:42;1.73;;;1.30;;
39750;SDS011;37579;51.074;17.004;2023-02-28T02:09:11;1.92;;;1.20;;
39750;SDS011;37579;51.074;17.004;2023-02-28T02:11:37;2.10;;;1.48;;
39750;SDS011;37579;51.074;17.004;2023-02-28T02:23:20;2.75;;;1.48;;
39750;SDS011;37579;51.074;17.004;2023-02-28T02:25:59;2.70;;;1.70;;
39750;SDS011;37579;51.074;17.004;2023-02-28T02:45:55;2.60;;;1.58;;
39750;SDS011;37579;51.074;17.004;2023-02-28T02:48:30;2.22;;;1.52;;
39750;SDS011;37579;51.074;17.004;2023-02-28T02:50:59;2.35;;;1.48;;
39750;SDS011;37579;51.074;17.004;2023-02-28T02:53:36;2.33;;;1.55;;
39750;SDS011;37579;51.074;17.004;2023-02-28T02:56:06;2.00;;;1.45;;
39750;SDS011;37579;51.074;17.004;2023-02-28T02:58:35;2.45;;;1.40;;
39750;SDS011;37579;51.074;17.004;2023-02-28T03:01:07;2.13;;;1.52;;
39750;SDS011;37579;51.074;17.004;2023-02-28T03:03:36;2.30;;;1.65;;
39750;SDS011;37579;51.074;17.004;2023-02-28T03:06:02;2.95;;;1.73;;
39750;SDS011;37579;51.074;17.004;2023-02-28T03:08:34;2.00;;;1.48;;
39750;SDS011;37579;51.074;17.004;2023-02-28T03:11:06;2.00;;;1.45;;
39750;SDS011;37579;51.074;17.004;2023-02-28T03:19:01;2.15;;;1.58;;
39750;SDS011;37579;51.074;17.004;2023-02-28T03:24:11;2.53;;;1.50;;
39750;SDS011;37579;51.074;17.004;2023-02-28T03:27:03;2.65;;;1.52;;
39750;SDS011;37579;51.074;17.004;2023-02-28T03:29:38;3.20;;;1.58;;
39750;SDS011;37579;51.074;17.004;2023-02-28T03:32:17;2.67;;;1.80;;
39750;SDS011;37579;51.074;17.004;2023-02-28T03:34:54;2.85;;;1.65;;
39750;SDS011;37579;51.074;17.004;2023-02-28T03:37:47;1.77;;;1.23;;
39750;SDS011;37579;51.074;17.004;2023-02-28T03:40:30;2.00;;;1.30;;
39750;SDS011;37579;51.074;17.004;2023-02-28T03:43:00;3.05;;;1.42;;
39750;SDS011;37579;51.074;17.004;2023-02-28T03:45:30;2.35;;;1.60;;
39750;SDS011;37579;51.074;17.004;2023-02-28T03:48:12;2.33;;;1.60;;
39750;SDS011;37579;51.074;17.004;2023-02-28T03:50:49;2.72;;;1.50;;
39750;SDS011;37579;51.074;17.004;2023-02-28T03:53:23;2.67;;;1.52;;
39750;SDS011;37579;51.074;17.004;2023-02-28T04:01:07;2.95;;;1.75;;
39750;SDS011;37579;51.074;17.004;2023-02-28T04:03:37;3.10;;;1.98;;
39750;SDS011;37579;51.074;17.004;2023-02-28T04:06:04;2.63;;;1.60;;
39750;SDS011;37579;51.074;17.004;2023-02-28T04:08:32;2.08;;;1.50;;
39750;SDS011;37579;51.074;17.004;2023-02-28T04:11:02;2.22;;;1.67;;
39750;SDS011;37579;51.074;17.004;2023-02-28T04:13:32;1.98;;;1.50;;
39750;SDS011;37579;51.074;17.004;2023-02-28T04:15:58;2.40;;;1.73;;
39750;SDS011;37579;51.074;17.004;2023-02-28T04:18:23;2.33;;;1.80;;
39750;SDS011;37579;51.074;17.004;2023-02-28T04:20:49;2.65;;;1.98;;
39750;SDS011;37579;51.074;17.004;2023-02-28T04:23:15;2.28;;;1.77;;
39750;SDS011;37579;51.074;17.004;2023-02-28T04:25:41;2.45;;;1.90;;
39750;SDS011;37579;51.074;17.004;2023-02-28T04:28:07;2.15;;;1.48;;
39750;SDS011;37579;51.074;17.004;2023-02-28T04:30:32;2.55;;;1.60;;
39750;SDS011;37579;51.074;17.004;2023-02-28T04:32:59;2.08;;;1.50;;
39750;SDS011;37579;51.074;17.004;2023-02-28T04:35:25;2.38;;;1.50;;
39750;SDS011;37579;51.074;17.004;2023-02-28T04:37:51;2.08;;;1.50;;
39750;SDS011;37579;51.074;17.004;2023-02-28T04:40:17;2.85;;;1.80;;
39750;SDS011;37579;51.074;17.004;2023-02-28T04:42:42;2.47;;;1.63;;
39750;SDS011;37579;51.074;17.004;2023-02-28T04:45:08;3.33;;;1.58;;
39750;SDS011;37579;51.074;17.004;2023-02-28T04:47:35;2.70;;;1.83;;
39750;SDS011;37579;51.074;17.004;2023-02-28T04:50:01;2.60;;;1.75;;
39750;SDS011;37579;51.074;17.004;2023-02-28T04:52:28;2.25;;;1.60;;
39750;SDS011;37579;51.074;17.004;2023-02-28T04:54:54;2.35;;;1.60;;
39750;SDS011;37579;51.074;17.004;2023-02-28T04:57:20;1.90;;;1.40;;
39750;SDS011;37579;51.074;17.004;2023-02-28T04:59:46;2.38;;;1.52;;
39750;SDS011;37579;51.074;17.004;2023-02-28T05:02:12;3.28;;;1.67;;
39750;SDS011;37579;51.074;17.004;2023-02-28T05:04:37;3.38;;;1.65;;
39750;SDS011;37579;51.074;17.004;2023-02-28T05:07:03;2.63;;;1.60;;
39750;SDS011;37579;51.074;17.004;2023-02-28T05:09:29;2.50;;;1.40;;
39750;SDS011;37579;51.074;17.004;2023-02-28T05:11:55;1.85;;;1.30;;
39750;SDS011;37579;51.074;17.004;2023-02-28T05:14:21;2.63;;;1.40;;
39750;SDS011;37579;51.074;17.004;2023-02-28T05:16:47;2.22;;;1.60;;
39750;SDS011;37579;51.074;17.004;2023-02-28T05:19:13;1.92;;;1.63;;
39750;SDS011;37579;51.074;17.004;2023-02-28T05:21:40;2.10;;;1.50;;
39750;SDS011;37579;51.074;17.004;2023-02-28T05:24:13;2.45;;;1.55;;
39750;SDS011;37579;51.074;17.004;2023-02-28T05:26:39;1.92;;;1.35;;
39750;SDS011;37579;51.074;17.004;2023-02-28T05:29:06;2.10;;;1.40;;
39750;SDS011;37579;51.074;17.004;2023-02-28T05:31:33;2.42;;;1.67;;
39750;SDS011;37579;51.074;17.004;2023-02-28T05:33:59;2.47;;;1.70;;
39750;SDS011;37579;51.074;17.004;2023-02-28T05:36:25;1.88;;;1.38;;
39750;SDS011;37579;51.074;17.004;2023-02-28T05:38:51;2.72;;;1.55;;
39750;SDS011;37579;51.074;17.004;2023-02-28T05:41:18;2.30;;;1.70;;
39750;SDS011;37579;51.074;17.004;2023-02-28T05:43:45;1.80;;;1.30;;
39750;SDS011;37579;51.074;17.004;2023-02-28T05:46:11;1.77;;;1.23;;
39750;SDS011;37579;51.074;17.004;2023-02-28T05:48:37;2.38;;;1.48;;
39750;SDS011;37579;51.074;17.004;2023-02-28T05:51:05;2.25;;;1.63;;
39750;SDS011;37579;51.074;17.004;2023-02-28T05:53:32;2.85;;;1.60;;
39750;SDS011;37579;51.074;17.004;2023-02-28T05:55:58;2.78;;;1.60;;
39750;SDS011;37579;51.074;17.004;2023-02-28T05:58:24;2.00;;;1.45;;
39750;SDS011;37579;51.074;17.004;2023-02-28T06:00:54;2.28;;;1.55;;
39750;SDS011;37579;51.074;17.004;2023-02-28T06:03:20;1.80;;;1.40;;
39750;SDS011;37579;51.074;17.004;2023-02-28T06:05:45;2.40;;;1.60;;
39750;SDS011;37579;51.074;17.004;2023-02-28T06:08:11;2.35;;;1.60;;
39750;SDS011;37579;51.074;17.004;2023-02-28T06:10:37;2.28;;;1.63;;
39750;SDS011;37579;51.074;17.004;2023-02-28T06:13:03;2.22;;;1.60;;
39750;SDS011;37579;51.074;17.004;2023-02-28T06:15:30;2.35;;;1.50;;
39750;SDS011;37579;51.074;17.004;2023-02-28T06:17:56;4.53;;;1.58;;
39750;SDS011;37579;51.074;17.004;2023-02-28T06:20:23;2.10;;;1.65;;
39750;SDS011;37579;51.074;17.004;2023-02-28T06:22:49;3.30;;;2.20;;
39750;SDS011;37579;51.074;17.004;2023-02-28T06:25:16;2.72;;;1.90;;
39750;SDS011;37579;51.074;17.004;2023-02-28T06:27:43;3.28;;;2.13;;
39750;SDS011;37579;51.074;17.004;2023-02-28T06:30:09;4.13;;;1.70;;
39750;SDS011;37579;51.074;17.004;2023-02-28T06:32:36;3.45;;;2.00;;
39750;SDS011;37579;51.074;17.004;2023-02-28T06:35:02;6.70;;;1.98;;
39750;SDS011;37579;51.074;17.004;2023-02-28T06:37:30;2.45;;;1.63;;
39750;SDS011;37579;51.074;17.004;2023-02-28T06:39:56;3.90;;;2.03;;
39750;SDS011;37579;51.074;17.004;2023-02-28T06:42:23;3.97;;;2.13;;
39750;SDS011;37579;51.074;17.004;2023-02-28T06:44:54;6.80;;;2.47;;
39750;SDS011;37579;51.074;17.004;2023-02-28T06:47:21;2.97;;;2.22;;
39750;SDS011;37579;51.074;17.004;2023-02-28T06:49:47;4.88;;;1.98;;
39750;SDS011;37579;51.074;17.004;2023-02-28T06:52:13;3.42;;;2.50;;
39750;SDS011;37579;51.074;17.004;2023-02-28T06:54:39;2.97;;;1.90;;
39750;SDS011;37579;51.074;17.004;2023-02-28T06:57:06;4.25;;;2.35;;
39750;SDS011;37579;51.074;17.004;2023-02-28T06:59:32;2.70;;;1.95;;
39750;SDS011;37579;51.074;17.004;2023-02-28T07:01:58;4.60;;;2.13;;
39750;SDS011;37579;51.074;17.004;2023-02-28T07:04:24;3.72;;;2.20;;
39750;SDS011;37579;51.074;17.004;2023-02-28T07:06:50;3.50;;;2.20;;
39750;SDS011;37579;51.074;17.004;2023-02-28T07:09:16;3.38;;;2.33;;
39750;SDS011;37579;51.074;17.004;2023-02-28T07:11:42;3.75;;;2.20;;
39750;SDS011;37579;51.074;17.004;2023-02-28T07:14:08;3.20;;;2.00;;
39750;SDS011;37579;51.074;17.004;2023-02-28T07:16:33;3.22;;;2.20;;
39750;SDS011;37579;51.074;17.004;2023-02-28T07:19:00;3.15;;;1.90;;
39750;SDS011;37579;51.074;17.004;2023-02-28T07:21:26;3.95;;;2.00;;
39750;SDS011;37579;51.074;17.004;2023-02-28T07:23:52;4.65;;;2.05;;
39750;SDS011;37579;51.074;17.004;2023-02-28T07:26:18;3.53;;;2.30;;
39750;SDS011;37579;51.074;17.004;2023-02-28T07:28:46;2.42;;;1.85;;
39750;SDS011;37579;51.074;17.004;2023-02-28T07:31:12;3.00;;;1.92;;
39750;SDS011;37579;51.074;17.004;2023-02-28T07:33:39;3.33;;;1.80;;
39750;SDS011;37579;51.074;17.004;2023-02-28T07:36:09;5.18;;;1.98;;
39750;SDS011;37579;51.074;17.004;2023-02-28T07:38:41;3.13;;;2.05;;
39750;SDS011;37579;51.074;17.004;2023-02-28T07:41:08;2.50;;;1.70;;
39750;SDS011;37579;51.074;17.004;2023-02-28T07:43:35;3.20;;;1.30;;
39750;SDS011;37579;51.074;17.004;2023-02-28T07:46:05;3.00;;;1.88;;
39750;SDS011;37579;51.074;17.004;2023-02-28T07:48:33;2.75;;;1.58;;
39750;SDS011;37579;51.074;17.004;2023-02-28T07:50:59;2.83;;;1.50;;
39750;SDS011;37579;51.074;17.004;2023-02-28T07:53:26;2.67;;;1.58;;
39750;SDS011;37579;51.074;17.004;2023-02-28T07:55:56;3.40;;;1.60;;
39750;SDS011;37579;51.074;17.004;2023-02-28T07:58:23;2.15;;;1.65;;
39750;SDS011;37579;51.074;17.004;2023-02-28T08:00:50;3.40;;;1.35;;
39750;SDS011;37579;51.074;17.004;2023-02-28T08:03:17;2.10;;;1.48;;
39750;SDS011;37579;51.074;17.004;2023-02-28T08:05:43;3.42;;;1.80;;
39750;SDS011;37579;51.074;17.004;2023-02-28T08:08:10;2.50;;;1.52;;
39750;SDS011;37579;51.074;17.004;2023-02-28T08:10:36;4.35;;;1.70;;
39750;SDS011;37579;51.074;17.004;2023-02-28T08:13:02;2.08;;;1.40;;
39750;SDS011;37579;51.074;17.004;2023-02-28T08:15:28;3.28;;;1.60;;
39750;SDS011;37579;51.074;17.004;2023-02-28T08:17:53;2.55;;;1.60;;
39750;SDS011;37579;51.074;17.004;2023-02-28T08:20:21;3.95;;;1.80;;
39750;SDS011;37579;51.074;17.004;2023-02-28T08:22:48;2.80;;;1.65;;
39750;SDS011;37579;51.074;17.004;2023-02-28T08:25:14;3.78;;;1.30;;
39750;SDS011;37579;51.074;17.004;2023-02-28T08:27:40;2.92;;;1.40;;
39750;SDS011;37579;51.074;17.004;2023-02-28T08:30:06;2.92;;;1.50;;
39750;SDS011;37579;51.074;17.004;2023-02-28T08:32:33;3.20;;;1.45;;
39750;SDS011;37579;51.074;17.004;2023-02-28T08:34:59;3.95;;;2.20;;
39750;SDS011;37579;51.074;17.004;2023-02-28T08:37:25;5.47;;;3.20;;
39750;SDS011;37579;51.074;17.004;2023-02-28T08:39:51;9.40;;;5.07;;
39750;SDS011;37579;51.074;17.004;2023-02-28T08:42:16;8.13;;;4.75;;
39750;SDS011;37579;51.074;17.004;2023-02-28T08:44:42;9.05;;;5.38;;
39750;SDS011;37579;51.074;17.004;2023-02-28T08:47:08;11.25;;;5.18;;
39750;SDS011;37579;51.074;17.004;2023-02-28T08:49:34;8.73;;;5.00;;
39750;SDS011;37579;51.074;17.004;2023-02-28T08:52:00;9.10;;;4.65;;
39750;SDS011;37579;51.074;17.004;2023-02-28T08:54:26;10.23;;;4.93;;
39750;SDS011;37579;51.074;17.004;2023-02-28T08:56:55;15.60;;;4.82;;
39750;SDS011;37579;51.074;17.004;2023-02-28T08:59:21;7.20;;;4.25;;
39750;SDS011;37579;51.074;17.004;2023-02-28T09:01:47;6.97;;;4.32;;
39750;SDS011;37579;51.074;17.004;2023-02-28T09:04:13;8.27;;;3.83;;
39750;SDS011;37579;51.074;17.004;2023-02-28T09:06:39;7.55;;;3.40;;
39750;SDS011;37579;51.074;17.004;2023-02-28T09:09:05;7.75;;;4.22;;
39750;SDS011;37579;51.074;17.004;2023-02-28T09:11:33;7.63;;;3.78;;
39750;SDS011;37579;51.074;17.004;2023-02-28T09:14:00;8.95;;;4.07;;
39750;SDS011;37579;51.074;17.004;2023-02-28T09:16:28;9.07;;;3.58;;
39750;SDS011;37579;51.074;17.004;2023-02-28T09:18:56;6.78;;;3.03;;
39750;SDS011;37579;51.074;17.004;2023-02-28T09:21:21;7.85;;;3.30;;
39750;SDS011;37579;51.074;17.004;2023-02-28T09:23:48;7.07;;;3.33;;
39750;SDS011;37579;51.074;17.004;2023-02-28T09:26:25;6.25;;;3.05;;
39750;SDS011;37579;51.074;17.004;2023-02-28T09:28:52;6.22;;;3.50;;
39750;SDS011;37579;51.074;17.004;2023-02-28T09:31:20;5.65;;;2.88;;
39750;SDS011;37579;51.074;17.004;2023-02-28T09:33:49;7.13;;;3.00;;
39750;SDS011;37579;51.074;17.004;2023-02-28T09:36:16;5.97;;;2.80;;
39750;SDS011;37579;51.074;17.004;2023-02-28T09:38:42;6.38;;;3.30;;
39750;SDS011;37579;51.074;17.004;2023-02-28T09:41:10;5.68;;;3.10;;
39750;SDS011;37579;51.074;17.004;2023-02-28T09:43:43;4.90;;;3.00;;
39750;SDS011;37579;51.074;17.004;2023-02-28T09:46:14;5.85;;;2.80;;
39750;SDS011;37579;51.074;17.004;2023-02-28T09:49:17;4.68;;;2.95;;
39750;SDS011;37579;51.074;17.004;2023-02-28T09:54:20;4.25;;;2.75;;
39750;SDS011;37579;51.074;17.004;2023-02-28T09:56:53;5.05;;;2.90;;
39750;SDS011;37579;51.074;17.004;2023-02-28T09:59:31;4.73;;;2.80;;
39750;SDS011;37579;51.074;17.004;2023-02-28T10:05:12;3.45;;;2.30;;
39750;SDS011;37579;51.074;17.004;2023-02-28T10:12:59;6.85;;;2.88;;
39750;SDS011;37579;51.074;17.004;2023-02-28T10:15:29;4.95;;;2.35;;
39750;SDS011;37579;51.074;17.004;2023-02-28T10:17:58;4.43;;;2.42;;
39750;SDS011;37579;51.074;17.004;2023-02-28T10:20:28;5.10;;;2.58;;
39750;SDS011;37579;51.074;17.004;2023-02-28T10:23:20;6.95;;;2.50;;
39750;SDS011;37579;51.074;17.004;2023-02-28T10:25:54;5.00;;;2.55;;
39750;SDS011;37579;51.074;17.004;2023-02-28T10:28:41;4.72;;;2.50;;
39750;SDS011;37579;51.074;17.004;2023-02-28T10:31:09;8.25;;;2.25;;
39750;SDS011;37579;51.074;17.004;2023-02-28T10:33:41;3.90;;;1.95;;
39750;SDS011;37579;51.074;17.004;2023-02-28T10:36:08;4.63;;;2.15;;
39750;SDS011;37579;51.074;17.004;2023-02-28T10:38:39;4.72;;;2.05;;
39750;SDS011;37579;51.074;17.004;2023-02-28T10:41:06;4.00;;;2.05;;
39750;SDS011;37579;51.074;17.004;2023-02-28T10:43:40;4.78;;;2.22;;
39750;SDS011;37579;51.074;17.004;2023-02-28T10:48:37;3.67;;;2.05;;
39750;SDS011;37579;51.074;17.004;2023-02-28T10:51:15;2.85;;;2.03;;
39750;SDS011;37579;51.074;17.004;2023-02-28T11:01:45;3.83;;;1.77;;
39750;SDS011;37579;51.074;17.004;2023-02-28T11:09:51;2.45;;;1.73;;
39750;SDS011;37579;51.074;17.004;2023-02-28T11:14:58;2.33;;;1.48;;
39750;SDS011;37579;51.074;17.004;2023-02-28T11:17:28;3.13;;;1.83;;
39750;SDS011;37579;51.074;17.004;2023-02-28T11:19:57;2.42;;;1.50;;
39750;SDS011;37579;51.074;17.004;2023-02-28T11:22:29;3.95;;;2.33;;
39750;SDS011;37579;51.074;17.004;2023-02-28T11:25:03;4.28;;;1.83;;
39750;SDS011;37579;51.074;17.004;2023-02-28T11:27:46;3.65;;;1.83;;
39750;SDS011;37579;51.074;17.004;2023-02-28T11:30:31;3.72;;;2.10;;
39750;SDS011;37579;51.074;17.004;2023-02-28T11:35:33;5.10;;;2.13;;
39750;SDS011;37579;51.074;17.004;2023-02-28T11:38:04;4.15;;;1.95;;
39750;SDS011;37579;51.074;17.004;2023-02-28T11:51:56;4.32;;;2.20;;
39750;SDS011;37579;51.074;17.004;2023-02-28T11:57:15;5.47;;;2.53;;
39750;SDS011;37579;51.074;17.004;2023-02-28T12:03:29;5.53;;;2.33;;
39750;SDS011;37579;51.074;17.004;2023-02-28T12:05:44;5.45;;;2.50;;
39750;SDS011;37579;51.074;17.004;2023-02-28T12:14:39;10.07;;;3.10;;
39750;SDS011;37579;51.074;17.004;2023-02-28T12:24:46;7.78;;;2.80;;
39750;SDS011;37579;51.074;17.004;2023-02-28T12:27:18;6.20;;;2.10;;
39750;SDS011;37579;51.074;17.004;2023-02-28T12:29:52;5.43;;;2.03;;
39750;SDS011;37579;51.074;17.004;2023-02-28T12:32:26;6.13;;;2.63;;
39750;SDS011;37579;51.074;17.004;2023-02-28T12:35:01;6.47;;;2.15;;
39750;SDS011;37579;51.074;17.004;2023-02-28T12:40:47;7.78;;;3.00;;
39750;SDS011;37579;51.074;17.004;2023-02-28T12:43:19;9.10;;;2.60;;
39750;SDS011;37579;51.074;17.004;2023-02-28T12:45:58;6.78;;;2.45;;
39750;SDS011;37579;51.074;17.004;2023-02-28T12:48:43;5.32;;;2.55;;
39750;SDS011;37579;51.074;17.004;2023-02-28T12:51:12;6.55;;;2.70;;
39750;SDS011;37579;51.074;17.004;2023-02-28T12:56:48;10.30;;;3.00;;
39750;SDS011;37579;51.074;17.004;2023-02-28T12:59:57;9.30;;;2.35;;
39750;SDS011;37579;51.074;17.004;2023-02-28T13:02:59;13.30;;;3.35;;
39750;SDS011;37579;51.074;17.004;2023-02-28T13:11:37;9.43;;;4.30;;
39750;SDS011;37579;51.074;17.004;2023-02-28T13:14:06;9.30;;;4.22;;
39750;SDS011;37579;51.074;17.004;2023-02-28T13:16:56;10.48;;;4.20;;
39750;SDS011;37579;51.074;17.004;2023-02-28T13:19:26;9.57;;;4.57;;
39750;SDS011;37579;51.074;17.004;2023-02-28T13:21:54;7.05;;;3.83;;
39750;SDS011;37579;51.074;17.004;2023-02-28T13:29:31;7.00;;;3.58;;
39750;SDS011;37579;51.074;17.004;2023-02-28T13:34:41;6.35;;;3.35;;
39750;SDS011;37579;51.074;17.004;2023-02-28T13:42:36;7.10;;;2.90;;
39750;SDS011;37579;51.074;17.004;2023-02-28T13:55:26;7.80;;;3.15;;
39750;SDS011;37579;51.074;17.004;2023-02-28T14:09:06;7.10;;;2.97;;
39750;SDS011;37579;51.074;17.004;2023-02-28T14:11:54;5.05;;;2.65;;
39750;SDS011;37579;51.074;17.004;2023-02-28T14:17:04;6.93;;;2.83;;
39750;SDS011;37579;51.074;17.004;2023-02-28T14:19:35;5.05;;;2.25;;
39750;SDS011;37579;51.074;17.004;2023-02-28T14:24:43;4.32;;;2.78;;
39750;SDS011;37579;51.074;17.004;2023-02-28T14:27:24;7.60;;;3.10;;
39750;SDS011;37579;51.074;17.004;2023-02-28T14:38:05;3.88;;;2.40;;
39750;SDS011;37579;51.074;17.004;2023-02-28T14:40:38;5.32;;;2.80;;
39750;SDS011;37579;51.074;17.004;2023-02-28T14:43:06;3.45;;;2.08;;
39750;SDS011;37579;51.074;17.004;2023-02-28T14:45:51;5.07;;;2.45;;
39750;SDS011;37579;51.074;17.004;2023-02-28T14:48:20;4.40;;;2.30;;
39750;SDS011;37579;51.074;17.004;2023-02-28T14:50:54;4.60;;;2.65;;
39750;SDS011;37579;51.074;17.004;2023-02-28T14:53:26;4.15;;;2.35;;
39750;SDS011;37579;51.074;17.004;2023-02-28T14:55:54;3.28;;;2.15;;
39750;SDS011;37579;51.074;17.004;2023-02-28T14:58:30;4.43;;;2.35;;
39750;SDS011;37579;51.074;17.004;2023-02-28T15:00:58;4.15;;;2.28;;
39750;SDS011;37579;51.074;17.004;2023-02-28T15:05:57;4.70;;;2.90;;
39750;SDS011;37579;51.074;17.004;2023-02-28T15:08:25;3.25;;;2.47;;
39750;SDS011;37579;51.074;17.004;2023-02-28T15:13:22;5.30;;;2.75;;
39750;SDS011;37579;51.074;17.004;2023-02-28T15:16:02;4.90;;;2.63;;
39750;SDS011;37579;51.074;17.004;2023-02-28T15:21:16;10.95;;;4.35;;
39750;SDS011;37579;51.074;17.004;2023-02-28T15:23:49;10.13;;;4.38;;
39750;SDS011;37579;51.074;17.004;2023-02-28T15:26:20;6.95;;;4.00;;
39750;SDS011;37579;51.074;17.004;2023-02-28T15:28:51;6.40;;;3.47;;
39750;SDS011;37579;51.074;17.004;2023-02-28T15:31:26;5.57;;;3.80;;
39750;SDS011;37579;51.074;17.004;2023-02-28T15:33:53;7.20;;;3.30;;
39750;SDS011;37579;51.074;17.004;2023-02-28T15:36:21;6.32;;;2.97;;
39750;SDS011;37579;51.074;17.004;2023-02-28T15:38:54;10.30;;;3.97;;
39750;SDS011;37579;51.074;17.004;2023-02-28T15:41:24;7.15;;;3.53;;
39750;SDS011;37579;51.074;17.004;2023-02-28T15:44:36;5.32;;;3.42;;
39750;SDS011;37579;51.074;17.004;2023-02-28T15:47:12;6.20;;;3.10;;
39750;SDS011;37579;51.074;17.004;2023-02-28T15:49:44;6.75;;;3.88;;
39750;SDS011;37579;51.074;17.004;2023-02-28T15:52:17;4.60;;;3.13;;
39750;SDS011;37579;51.074;17.004;2023-02-28T15:54:53;6.90;;;2.92;;
39750;SDS011;37579;51.074;17.004;2023-02-28T15:57:24;4.75;;;3.10;;
39750;SDS011;37579;51.074;17.004;2023-02-28T15:59:52;4.68;;;3.15;;
39750;SDS011;37579;51.074;17.004;2023-02-28T16:05:01;6.80;;;3.45;;
39750;SDS011;37579;51.074;17.004;2023-02-28T16:09:54;6.10;;;3.47;;
39750;SDS011;37579;51.074;17.004;2023-02-28T16:12:20;7.35;;;3.05;;
39750;SDS011;37579;51.074;17.004;2023-02-28T16:14:51;4.60;;;2.75;;
39750;SDS011;37579;51.074;17.004;2023-02-28T16:17:23;4.07;;;2.75;;
39750;SDS011;37579;51.074;17.004;2023-02-28T16:19:51;4.95;;;2.83;;
39750;SDS011;37579;51.074;17.004;2023-02-28T16:22:17;5.32;;;2.70;;
39750;SDS011;37579;51.074;17.004;2023-02-28T16:24:43;5.35;;;2.78;;
39750;SDS011;37579;51.074;17.004;2023-02-28T16:27:29;4.22;;;2.40;;
39750;SDS011;37579;51.074;17.004;2023-02-28T16:29:58;5.25;;;2.50;;
39750;SDS011;37579;51.074;17.004;2023-02-28T16:32:24;6.35;;;2.53;;
39750;SDS011;37579;51.074;17.004;2023-02-28T16:34:49;5.65;;;2.40;;
39750;SDS011;37579;51.074;17.004;2023-02-28T16:37:16;4.80;;;2.88;;
39750;SDS011;37579;51.074;17.004;2023-02-28T16:39:43;3.75;;;2.30;;
39750;SDS011;37579;51.074;17.004;2023-02-28T16:42:31;3.90;;;2.63;;
39750;SDS011;37579;51.074;17.004;2023-02-28T16:44:56;4.68;;;2.22;;
39750;SDS011;37579;51.074;17.004;2023-02-28T16:47:23;3.50;;;2.35;;
39750;SDS011;37579;51.074;17.004;2023-02-28T16:49:51;3.10;;;1.85;;
39750;SDS011;37579;51.074;17.004;2023-02-28T16:52:17;2.97;;;1.98;;
39750;SDS011;37579;51.074;17.004;2023-02-28T16:54:43;4.97;;;2.35;;
39750;SDS011;37579;51.074;17.004;2023-02-28T16:57:15;3.75;;;2.38;;
39750;SDS011;37579;51.074;17.004;2023-02-28T16:59:45;4.22;;;2.08;;
39750;SDS011;37579;51.074;17.004;2023-02-28T17:02:12;4.38;;;2.28;;
39750;SDS011;37579;51.074;17.004;2023-02-28T17:04:39;6.25;;;2.28;;
39750;SDS011;37579;51.074;17.004;2023-02-28T17:07:08;3.35;;;1.85;;
39750;SDS011;37579;51.074;17.004;2023-02-28T17:09:37;2.63;;;1.85;;
39750;SDS011;37579;51.074;17.004;2023-02-28T17:12:03;2.88;;;1.98;;
39750;SDS011;37579;51.074;17.004;2023-02-28T17:14:29;5.45;;;2.53;;
39750;SDS011;37579;51.074;17.004;2023-02-28T17:16:55;3.40;;;1.80;;
39750;SDS011;37579;51.074;17.004;2023-02-28T17:19:21;2.78;;;1.90;;
39750;SDS011;37579;51.074;17.004;2023-02-28T17:21:46;3.97;;;2.20;;
39750;SDS011;37579;51.074;17.004;2023-02-28T17:24:12;3.30;;;2.28;;
39750;SDS011;37579;51.074;17.004;2023-02-28T17:26:39;3.08;;;1.77;;
39750;SDS011;37579;51.074;17.004;2023-02-28T17:29:16;4.30;;;2.03;;
39750;SDS011;37579;51.074;17.004;2023-02-28T17:31:45;2.90;;;1.80;;
39750;SDS011;37579;51.074;17.004;2023-02-28T17:34:11;5.40;;;2.60;;
39750;SDS011;37579;51.074;17.004;2023-02-28T17:36:43;3.38;;;2.15;;
39750;SDS011;37579;51.074;17.004;2023-02-28T17:39:11;3.97;;;2.10;;
39750;SDS011;37579;51.074;17.004;2023-02-28T17:41:39;3.72;;;2.08;;
39750;SDS011;37579;51.074;17.004;2023-02-28T17:44:08;2.60;;;1.95;;
39750;SDS011;37579;51.074;17.004;2023-02-28T17:46:34;3.60;;;2.00;;